LFBL/LIG METAR and TAF weather

Enter ICAO airport designator
Station Type Date Time Source
LFBL METAR 2021/03/01 23:00 UTC NOAA

LFBL 012300Z AUTO 13006KT CAVOK 10/02 Q1025 NOSIG


Station Type Date Time Source
LFBL Decoded METAR 2021/03/01 23:00 UTC NOAA

Limoges, France (LFBL) 45-52N 001-11E 402M
Mar 01, 2021 - 06:00 PM EST / 2021.03.01 2300 UTC
Wind: from the SE (130 degrees) at 7 MPH (6 KT):0
Visibility: greater than 7 mile(s):0
Temperature: 50 F (10 C)
Dew Point: 35 F (2 C)
Relative Humidity: 57%
Pressure (altimeter): 30.27 in. Hg (1025 hPa)
ob: LFBL 012300Z AUTO 13006KT CAVOK 10/02 Q1025 NOSIG
cycle: 23

Station Type Date Time Source
LFBL TAF 2021/03/01 18:42 UTC NOAA

TAF TAF LFBL 011700Z 0118/0218 VRB03KT CAVOK

Example: see airport list